Pendleton, OR

12:17 AM PST on December 10, 2019 (GMT -0800)
Eastern Oreg Regional At Pendleton | | Change Station
Active Advisory: Dense Fog Advisory

Elev 1496 ft 45.69 °N, 118.84 °W | Updated 24 minutes ago

Overcast
Overcast
35 °F
Feels Like 31 °F
N
5
Wind Variable Wind from ENE

Today
High -- | Low -- °F
--% Chance of Precip.
Yesterday
High -- | Low -- °F
Precip. -- in
Pressure 30.26 in
Visibility 1.2 miles
Clouds Overcast 300 ft
Windchill 31 °F
Dew Point 33 °F
Humidity 92%
Rainfall 0.00 in
Snow Depth Not available.
7:25 AM 4:11 PM
Waxing Gibbous, 96% visible
METAR KPDT 100753Z AUTO 07004KT 1 1/4SM R26/5000VP6000FT BR OVC003 02/01 A3024 RMK AO2 SLP246 T00170006 400440011
Pressure 30.26 in
Visibility 1.2 miles
Clouds Overcast 300 ft
Windchill 31 °F
Dew Point 33 °F
Humidity 92%
Rainfall 0.00 in
Snow Depth Not available.
7:25 AM 4:11 PM
Waxing Gibbous, 96% visible
METAR KPDT 100753Z AUTO 07004KT 1 1/4SM R26/5000VP6000FT BR OVC003 02/01 A3024 RMK AO2 SLP246 T00170006 400440011

Get Your Daily Forecast Email!

Thanks for signing up!

Be on the lookout for a verification email in your inbox.

You'll start receiving severe weather alerts in your inbox..

×

10-Day Weather Forecast

Almanac

Astronomy

Dec. 10, 2019 Rise Set
Actual Time
Civil Twilight
Nautical Twilight
Astronomical Twilight
Moon
Length of Visible Light
Length of Day
Tomorrow will be .
, % of the Moon is Illuminated

Today's Extremes

State Highs State Lows

Community

WunderPhotos

Category 6

Welcome to Category 6. This is the collective home for Weather Underground's featured writeups by Dr. Jeff Masters (right), Bob Henson (left), Chris Burt, and other regular contributors.

Nearby

Air Quality

  Air Quality AQ Index Pollutant
Not available.

Snow Depth

Station Depth Elevation

Earthquake Activity

City Distance Mag. Time & Date
Minimum magnitude displayed is 2.5.

Coastal Water Temperatures

Place Temperature

Stations

Nearby Weather Stations

Station Location Temp. Windchill Dew Point Humidity Wind Precip. Elev Updated Type
                   

Watches & Warnings

Dense Fog Advisory
Issued: 7:58 PM PST Dec. 9, 2019 – National Weather Service

... Dense fog advisory remains in effect until noon PST Tuesday...

* what... visibility one quarter mile or less in dense fog.

* Where... in Washington, Kittitas Valley and Yakima Valley and the
foothills of the northern Blue Mountains in Oregon.

* When... until noon PST Tuesday.

* Impacts... hazardous driving conditions due to low visibility.

* Additional details... some areas could have temperatures near
freezing so icy spots on roadways may develop, especially on
bridges and overpasses.

If driving, slow down, use your headlights, and leave plenty of
distance ahead of you.



For more information from the National Weather Service visit
https://weather.Gov/Pendleton